createdAt,value
2022-12-11T00:00:46.466Z,63.81
2022-12-11T00:03:16.090Z,63.91
2022-12-11T00:05:43.457Z,63.57
2022-12-11T00:08:10.211Z,63.40
2022-12-11T00:10:37.964Z,63.55
2022-12-11T00:13:05.082Z,63.76
2022-12-11T00:15:31.886Z,63.87
2022-12-11T00:17:58.465Z,63.50
2022-12-11T00:20:25.099Z,63.90
2022-12-11T00:22:51.725Z,63.83
2022-12-11T00:25:18.468Z,64.24
2022-12-11T00:27:46.800Z,64.06
2022-12-11T00:30:14.264Z,64.66
2022-12-11T00:32:40.978Z,64.12
2022-12-11T00:35:08.393Z,64.63
2022-12-11T00:37:35.359Z,64.13
2022-12-11T00:40:02.004Z,63.78
2022-12-11T00:42:28.656Z,63.74
2022-12-11T00:44:56.336Z,64.02
2022-12-11T00:47:22.919Z,64.19
2022-12-11T00:49:50.158Z,63.66
2022-12-11T00:52:18.023Z,63.67
2022-12-11T00:54:45.471Z,62.89
2022-12-11T00:57:12.089Z,63.44
2022-12-11T00:59:38.888Z,63.59
2022-12-11T01:02:05.495Z,63.39
2022-12-11T01:04:32.088Z,63.48
2022-12-11T01:06:58.664Z,63.53
2022-12-11T01:10:00.592Z,63.27
2022-12-11T01:12:28.559Z,63.93
2022-12-11T01:14:55.143Z,63.32
2022-12-11T01:17:21.803Z,63.56
2022-12-11T01:19:48.392Z,63.49
2022-12-11T01:22:15.324Z,63.44
2022-12-11T01:24:41.925Z,62.98
2022-12-11T01:27:08.563Z,63.70
2022-12-11T01:29:35.135Z,62.91
2022-12-11T01:32:01.723Z,63.10
2022-12-11T01:34:33.148Z,62.38
2022-12-11T01:36:59.808Z,62.90
2022-12-11T01:39:26.392Z,62.87
2022-12-11T01:42:00.565Z,62.19
2022-12-11T01:44:27.172Z,62.18
2022-12-11T01:46:54.444Z,61.50
2022-12-11T01:49:25.857Z,63.24
2022-12-11T01:52:00.511Z,62.40
2022-12-11T01:54:29.125Z,62.63
2022-12-11T01:57:01.475Z,62.94
2022-12-11T01:59:31.884Z,61.68
2022-12-11T02:02:24.425Z,61.88
2022-12-11T02:04:51.643Z,62.15
2022-12-11T02:07:18.314Z,62.46
2022-12-11T02:09:47.584Z,62.79
2022-12-11T02:12:36.111Z,62.42
2022-12-11T02:15:21.334Z,62.56
2022-12-11T02:17:54.521Z,62.68
2022-12-11T02:20:31.950Z,62.25
2022-12-11T02:23:04.759Z,62.21
2022-12-11T02:25:36.920Z,62.05
2022-12-11T02:28:31.830Z,62.08
2022-12-11T02:31:14.195Z,62.45
2022-12-11T02:33:52.344Z,62.07
2022-12-11T02:36:21.660Z,62.39
2022-12-11T02:38:51.694Z,62.72
2022-12-11T02:41:21.704Z,62.78
2022-12-11T02:43:50.631Z,62.58
2022-12-11T02:46:19.871Z,62.41
2022-12-11T02:48:50.673Z,62.53
2022-12-11T02:51:22.014Z,62.78
2022-12-11T02:53:50.496Z,62.48
2022-12-11T02:56:22.414Z,62.71
2022-12-11T02:58:58.486Z,63.06
2022-12-11T03:01:26.165Z,62.69
2022-12-11T03:03:54.041Z,62.22
2022-12-11T03:06:24.118Z,62.27
2022-12-11T03:08:51.995Z,62.25
2022-12-11T03:11:18.625Z,62.12
2022-12-11T03:13:45.524Z,62.49
2022-12-11T03:16:15.650Z,62.07
2022-12-11T03:19:06.567Z,62.30
2022-12-11T03:21:36.364Z,62.08
2022-12-11T03:24:27.239Z,62.15
2022-12-11T03:27:01.145Z,61.39
2022-12-11T03:29:37.344Z,62.59
2022-12-11T03:32:16.283Z,62.23
2022-12-11T03:34:58.153Z,61.55
2022-12-11T03:37:28.759Z,61.78
2022-12-11T03:40:01.957Z,61.89
2022-12-11T03:42:29.665Z,61.65
2022-12-11T03:45:00.032Z,61.91
2022-12-11T03:47:28.747Z,62.14
2022-12-11T03:49:57.474Z,61.88
2022-12-11T03:52:27.400Z,61.99
2022-12-11T03:54:55.902Z,61.64
2022-12-11T03:57:28.822Z,63.27
2022-12-11T03:59:55.480Z,63.32
2022-12-11T04:02:22.080Z,63.49
2022-12-11T04:04:48.815Z,63.86
2022-12-11T04:07:15.456Z,63.41
2022-12-11T04:09:42.034Z,62.75
2022-12-11T04:12:08.650Z,62.04
2022-12-11T04:14:53.738Z,62.00
2022-12-11T04:17:38.972Z,61.74
2022-12-11T04:20:38.906Z,61.29
2022-12-11T04:23:25.951Z,61.45
2022-12-11T04:25:52.583Z,61.35
2022-12-11T04:28:19.194Z,63.52
2022-12-11T04:30:50.392Z,64.58
2022-12-11T04:33:17.117Z,64.38
2022-12-11T04:35:44.701Z,63.71
2022-12-11T04:38:11.328Z,62.83
2022-12-11T04:40:37.898Z,62.68
2022-12-11T04:43:04.576Z,62.02
2022-12-11T04:45:31.127Z,61.89
2022-12-11T04:47:57.692Z,61.71
2022-12-11T04:50:24.290Z,61.59
2022-12-11T04:52:50.996Z,61.69
2022-12-11T04:55:17.704Z,61.31
2022-12-11T04:57:44.323Z,61.24
2022-12-11T05:00:12.549Z,61.67
2022-12-11T05:02:40.992Z,61.21
2022-12-11T05:05:09.919Z,61.14
2022-12-11T05:07:37.786Z,61.30
2022-12-11T05:10:05.865Z,61.17
2022-12-11T05:12:33.207Z,61.25
2022-12-11T05:14:59.804Z,62.00
2022-12-11T05:17:26.376Z,61.57
2022-12-11T05:19:53.182Z,61.59
2022-12-11T05:22:19.815Z,61.86
2022-12-11T05:24:46.439Z,61.99
2022-12-11T05:27:13.147Z,61.29
2022-12-11T05:29:39.867Z,61.60
2022-12-11T05:32:06.644Z,61.18
2022-12-11T05:34:33.267Z,61.39
2022-12-11T05:36:59.875Z,61.11
2022-12-11T05:39:26.812Z,61.20
2022-12-11T05:41:53.676Z,60.02
2022-12-11T05:44:20.452Z,62.04
2022-12-11T05:46:47.334Z,62.74
2022-12-11T05:49:13.992Z,62.92
2022-12-11T05:51:41.318Z,63.96
2022-12-11T05:54:07.983Z,64.42
2022-12-11T05:56:35.955Z,63.88
2022-12-11T05:59:04.446Z,64.93
2022-12-11T06:01:40.357Z,64.70
2022-12-11T06:04:07.982Z,63.52
2022-12-11T06:06:35.507Z,62.04
2022-12-11T06:09:03.081Z,62.00
2022-12-11T06:11:31.110Z,61.97
2022-12-11T06:14:00.780Z,61.24
2022-12-11T06:16:27.420Z,60.97
2022-12-11T06:18:57.982Z,61.25
2022-12-11T06:21:28.223Z,61.26
2022-12-11T06:23:56.371Z,60.64
2022-12-11T06:26:23.871Z,60.81
2022-12-11T06:28:50.904Z,61.42
2022-12-11T06:31:18.345Z,61.13
2022-12-11T06:33:45.231Z,61.03
2022-12-11T06:36:15.064Z,61.21
2022-12-11T06:38:42.024Z,61.14
2022-12-11T06:41:09.491Z,61.41
2022-12-11T06:43:38.013Z,61.15
2022-12-11T06:46:12.805Z,62.33
2022-12-11T06:48:39.834Z,61.80
2022-12-11T06:51:08.185Z,62.63
2022-12-11T06:53:35.414Z,61.17
2022-12-11T06:56:07.309Z,61.34
2022-12-11T06:58:35.962Z,61.08
2022-12-11T07:01:03.886Z,61.17
2022-12-11T07:03:30.567Z,61.73
2022-12-11T07:06:03.339Z,61.83
2022-12-11T07:08:30.046Z,62.60
2022-12-11T07:11:03.461Z,62.59
2022-12-11T07:13:30.052Z,63.28
2022-12-11T07:15:58.792Z,63.27
2022-12-11T07:18:25.414Z,62.04
2022-12-11T07:20:52.120Z,62.42
2022-12-11T07:23:18.786Z,62.20
2022-12-11T07:25:45.410Z,61.53
2022-12-11T07:28:16.561Z,61.55
2022-12-11T07:30:43.492Z,61.66
2022-12-11T07:33:10.422Z,61.28
2022-12-11T07:35:37.626Z,60.86
2022-12-11T07:38:04.234Z,60.64
2022-12-11T07:40:31.596Z,60.29
2022-12-11T07:42:58.139Z,60.66
2022-12-11T07:45:26.628Z,62.61
2022-12-11T07:47:53.570Z,63.15
2022-12-11T07:50:20.220Z,62.83
2022-12-11T07:52:46.954Z,63.40
2022-12-11T07:55:13.789Z,62.55
2022-12-11T07:57:40.712Z,62.95
2022-12-11T08:00:08.377Z,62.63
2022-12-11T08:02:38.912Z,62.96
2022-12-11T08:05:06.214Z,63.74
2022-12-11T08:07:35.473Z,64.18
2022-12-11T08:10:03.425Z,63.48
2022-12-11T08:12:30.424Z,63.56
2022-12-11T08:14:57.631Z,65.02
2022-12-11T08:17:29.070Z,65.20
2022-12-11T08:19:57.537Z,65.91
2022-12-11T08:22:24.212Z,66.23
2022-12-11T08:24:50.849Z,64.86
2022-12-11T08:27:17.882Z,64.40
2022-12-11T08:29:46.767Z,64.77
2022-12-11T08:32:13.950Z,65.64
2022-12-11T08:34:41.789Z,65.51
2022-12-11T08:37:08.331Z,65.14
2022-12-11T08:39:35.643Z,64.73
2022-12-11T08:42:02.327Z,64.26
2022-12-11T08:44:29.846Z,64.29
2022-12-11T08:46:56.393Z,64.29
2022-12-11T08:49:23.015Z,64.27
2022-12-11T08:51:49.603Z,64.42
2022-12-11T08:54:16.173Z,64.93
2022-12-11T08:56:42.724Z,64.78
2022-12-11T08:59:09.402Z,64.60
2022-12-11T09:01:36.110Z,65.00
2022-12-11T09:04:02.743Z,65.18
2022-12-11T09:06:30.206Z,65.50
2022-12-11T09:08:59.954Z,65.62
2022-12-11T09:11:30.077Z,65.36
2022-12-11T09:13:59.849Z,65.21
2022-12-11T09:16:29.283Z,65.10
2022-12-11T09:18:57.939Z,65.13
2022-12-11T09:21:27.979Z,65.17
2022-12-11T09:23:56.836Z,64.89
2022-12-11T09:26:24.536Z,66.38
2022-12-11T09:28:53.493Z,66.61
2022-12-11T09:31:29.216Z,66.13
2022-12-11T09:33:58.659Z,65.98
2022-12-11T09:36:25.819Z,65.86
2022-12-11T09:38:52.472Z,66.20
2022-12-11T09:41:22.134Z,66.63
2022-12-11T09:44:16.873Z,66.88
2022-12-11T09:46:45.095Z,65.66
2022-12-11T09:49:21.769Z,65.56
2022-12-11T09:52:00.769Z,65.20
2022-12-11T09:54:27.606Z,66.07
2022-12-11T09:57:26.191Z,67.28
2022-12-11T10:00:07.894Z,67.64
2022-12-11T10:02:40.821Z,67.67
2022-12-11T10:05:36.082Z,66.24
2022-12-11T10:08:20.795Z,64.88
2022-12-11T10:10:55.757Z,64.71
2022-12-11T10:13:34.437Z,64.24
2022-12-11T10:16:20.187Z,65.23
2022-12-11T10:18:48.613Z,65.59
2022-12-11T10:21:18.313Z,65.93
2022-12-11T10:23:53.720Z,65.46
2022-12-11T10:26:26.793Z,64.27
2022-12-11T10:28:53.527Z,66.04
2022-12-11T10:31:26.972Z,66.11
2022-12-11T10:34:01.597Z,64.94
2022-12-11T10:36:30.139Z,64.54
2022-12-11T10:38:57.550Z,64.43
2022-12-11T10:41:38.152Z,63.84
2022-12-11T10:44:17.611Z,63.78
2022-12-11T10:46:45.940Z,63.69
2022-12-11T10:49:30.510Z,63.34
2022-12-11T10:52:01.367Z,63.26
2022-12-11T10:54:41.040Z,63.14
2022-12-11T10:57:10.142Z,62.96
2022-12-11T10:59:42.734Z,63.71
2022-12-11T11:02:32.234Z,62.64
2022-12-11T11:05:00.974Z,63.06
2022-12-11T11:07:30.667Z,62.94
2022-12-11T11:10:11.345Z,62.44
2022-12-11T11:12:41.288Z,62.38
2022-12-11T11:15:14.132Z,62.11
2022-12-11T11:17:54.486Z,61.89
2022-12-11T11:20:30.176Z,61.83
2022-12-11T11:23:02.420Z,60.94
2022-12-11T11:25:32.823Z,62.68
2022-12-11T11:28:06.182Z,62.25
2022-12-11T11:30:37.284Z,61.26
2022-12-11T11:33:12.248Z,61.23
2022-12-11T11:35:42.639Z,60.73
2022-12-11T11:38:21.936Z,61.52
2022-12-11T11:41:04.242Z,61.31
2022-12-11T11:43:46.558Z,60.95
2022-12-11T11:46:32.087Z,60.91
2022-12-11T11:49:18.647Z,60.91
2022-12-11T11:52:15.581Z,60.55
2022-12-11T11:55:00.889Z,60.52
2022-12-11T11:57:35.623Z,60.67
2022-12-11T12:00:10.738Z,60.22
2022-12-11T12:02:41.301Z,60.15
2022-12-11T12:05:13.484Z,59.63
2022-12-11T12:07:59.575Z,60.00
2022-12-11T12:10:38.454Z,59.34
2022-12-11T12:16:55.621Z,59.03
2022-12-11T12:19:47.117Z,59.29
2022-12-11T12:22:25.365Z,58.61
2022-12-11T12:25:07.197Z,58.90
2022-12-11T12:27:55.268Z,58.38
2022-12-11T12:30:23.251Z,58.95
2022-12-11T12:33:02.673Z,58.28
2022-12-11T12:35:32.265Z,58.48
2022-12-11T12:38:04.750Z,59.04
2022-12-11T12:40:38.808Z,58.46
2022-12-11T12:43:23.512Z,59.13
2022-12-11T12:45:56.899Z,59.51
2022-12-11T12:48:24.720Z,59.37
2022-12-11T12:50:51.199Z,59.42
2022-12-11T12:53:19.714Z,58.40
2022-12-11T12:55:47.865Z,58.43
2022-12-11T12:58:26.893Z,58.85
2022-12-11T13:00:53.534Z,58.16
2022-12-11T13:03:21.854Z,57.96
2022-12-11T13:06:06.215Z,58.21
2022-12-11T13:08:43.528Z,58.52
2022-12-11T13:11:11.134Z,58.91
2022-12-11T13:13:37.563Z,58.63
2022-12-11T13:16:16.286Z,58.76
2022-12-11T13:18:47.621Z,58.65
2022-12-11T13:21:32.575Z,58.05
2022-12-11T13:24:34.537Z,58.04
2022-12-11T13:27:11.115Z,57.62
2022-12-11T13:29:41.907Z,57.76
2022-12-11T13:32:11.319Z,58.14
2022-12-11T13:34:39.361Z,58.47
2022-12-11T13:37:06.208Z,58.75
2022-12-11T13:39:37.631Z,58.57
2022-12-11T13:42:20.312Z,58.36
2022-12-11T13:44:47.785Z,58.35
2022-12-11T13:47:15.770Z,57.76
2022-12-11T13:49:43.745Z,57.81
2022-12-11T13:52:20.950Z,58.03
2022-12-11T13:54:50.725Z,58.10
2022-12-11T13:57:21.760Z,57.93
2022-12-11T13:59:55.334Z,57.92
2022-12-11T14:02:34.185Z,57.91
2022-12-11T14:05:02.842Z,58.22
2022-12-11T14:07:34.855Z,58.32
2022-12-11T14:10:20.242Z,58.00
2022-12-11T14:12:49.714Z,58.47
2022-12-11T14:15:16.401Z,58.54
2022-12-11T14:17:48.442Z,58.34
2022-12-11T14:20:19.742Z,58.72
2022-12-11T14:22:46.284Z,58.83
2022-12-11T14:25:24.812Z,58.49
2022-12-11T14:27:52.612Z,58.27
2022-12-11T14:30:29.982Z,58.14
2022-12-11T14:32:57.920Z,58.19
2022-12-11T14:35:38.428Z,58.32
2022-12-11T14:38:16.116Z,58.26
2022-12-11T14:40:44.338Z,58.57
2022-12-11T14:43:14.118Z,58.73
2022-12-11T14:45:42.991Z,58.03
2022-12-11T14:48:13.750Z,58.45
2022-12-11T14:50:47.487Z,58.61
2022-12-11T14:53:15.557Z,58.46
2022-12-11T14:55:42.323Z,58.33
2022-12-11T14:58:15.565Z,58.54
2022-12-11T15:00:42.278Z,58.61
2022-12-11T15:03:11.795Z,58.44
2022-12-11T15:05:48.729Z,59.15
2022-12-11T15:08:24.413Z,59.43
2022-12-11T15:11:10.171Z,59.04
2022-12-11T15:13:49.667Z,59.30
2022-12-11T15:16:19.016Z,59.91
2022-12-11T15:18:48.147Z,60.07
2022-12-11T15:21:16.589Z,60.44
2022-12-11T15:23:51.995Z,60.50
2022-12-11T15:26:20.028Z,60.81
2022-12-11T15:28:47.052Z,60.21
2022-12-11T15:31:23.030Z,59.66
2022-12-11T15:33:49.561Z,59.64
2022-12-11T15:36:23.409Z,59.51
2022-12-11T15:38:49.891Z,59.27
2022-12-11T15:41:18.022Z,58.89
2022-12-11T15:43:44.788Z,58.97
2022-12-11T15:46:11.376Z,59.55
2022-12-11T15:48:37.848Z,59.30
2022-12-11T15:51:04.295Z,59.51
2022-12-11T15:53:30.863Z,59.04
2022-12-11T15:55:58.719Z,58.77
2022-12-11T15:58:27.206Z,58.23
2022-12-11T16:00:54.160Z,58.75
2022-12-11T16:03:23.158Z,59.33
2022-12-11T16:05:51.447Z,59.84
2022-12-11T16:08:20.037Z,59.68
2022-12-11T16:10:46.897Z,60.12
2022-12-11T16:13:13.820Z,60.04
2022-12-11T16:15:42.037Z,59.95
2022-12-11T16:18:10.236Z,59.41
2022-12-11T16:20:37.755Z,59.54
2022-12-11T16:23:04.220Z,59.41
2022-12-11T16:25:31.681Z,59.41
2022-12-11T16:27:59.537Z,59.30
2022-12-11T16:30:26.624Z,59.11
2022-12-11T16:32:53.452Z,58.65
2022-12-11T16:35:20.672Z,58.65
2022-12-11T16:37:50.927Z,58.87
2022-12-11T16:40:17.970Z,58.99
2022-12-11T16:42:44.950Z,59.14
2022-12-11T16:45:15.485Z,59.63
2022-12-11T16:47:41.979Z,59.46
2022-12-11T16:50:09.387Z,59.16
2022-12-11T16:52:35.891Z,58.77
2022-12-11T16:55:02.520Z,58.81
2022-12-11T16:57:28.996Z,58.87
2022-12-11T16:59:55.411Z,58.83
2022-12-11T17:02:21.910Z,58.53
2022-12-11T17:04:53.685Z,58.62
2022-12-11T17:07:20.625Z,58.74
2022-12-11T17:09:47.444Z,59.02
2022-12-11T17:12:13.914Z,58.99
2022-12-11T17:14:40.411Z,59.16
2022-12-11T17:17:06.931Z,59.37
2022-12-11T17:19:33.484Z,59.02
2022-12-11T17:21:59.988Z,58.61
2022-12-11T17:24:26.578Z,58.77
2022-12-11T17:26:53.712Z,58.58
2022-12-11T17:29:21.194Z,58.91
2022-12-11T17:31:47.912Z,58.78
2022-12-11T17:34:15.651Z,58.48
2022-12-11T17:36:42.076Z,58.32
2022-12-11T17:39:08.519Z,60.17
2022-12-11T17:41:34.978Z,59.17
2022-12-11T17:44:01.481Z,58.46
2022-12-11T17:46:27.938Z,58.64
2022-12-11T17:48:54.462Z,58.61
2022-12-11T17:51:23.857Z,58.58
2022-12-11T17:53:51.961Z,58.23
2022-12-11T17:56:18.472Z,58.45
2022-12-11T17:58:45.026Z,58.18
2022-12-11T18:01:13.115Z,58.39
2022-12-11T18:03:40.396Z,58.78
2022-12-11T18:06:11.999Z,59.50
2022-12-11T18:08:39.142Z,59.62
2022-12-11T18:11:13.645Z,59.79
2022-12-11T18:13:40.399Z,60.06
2022-12-11T18:16:09.001Z,59.30
2022-12-11T18:18:35.665Z,59.08
2022-12-11T18:21:02.110Z,59.70
2022-12-11T18:23:28.611Z,60.07
2022-12-11T18:25:55.228Z,60.11
2022-12-11T18:28:22.058Z,60.54
2022-12-11T18:30:48.537Z,59.81
2022-12-11T18:33:15.687Z,59.96
2022-12-11T18:35:42.283Z,60.36
2022-12-11T18:38:08.691Z,61.31
2022-12-11T18:40:35.162Z,60.10
2022-12-11T18:43:01.594Z,59.75
2022-12-11T18:45:28.145Z,60.91
2022-12-11T18:47:56.476Z,60.60
2022-12-11T18:50:22.907Z,60.82
2022-12-11T18:52:52.661Z,60.26
2022-12-11T18:55:19.117Z,60.00
2022-12-11T18:57:45.522Z,60.17
2022-12-11T19:00:12.392Z,60.06
2022-12-11T19:02:38.815Z,60.10
2022-12-11T19:05:05.566Z,60.34
2022-12-11T19:07:33.128Z,60.61
2022-12-11T19:09:59.564Z,60.35
2022-12-11T19:12:26.010Z,60.79
2022-12-11T19:14:52.482Z,60.46
2022-12-11T19:17:18.934Z,60.18
2022-12-11T19:19:47.410Z,59.79
2022-12-11T19:22:14.921Z,60.50
2022-12-11T19:24:41.403Z,60.98
2022-12-11T19:27:13.239Z,60.22
2022-12-11T19:29:40.235Z,61.62
2022-12-11T19:32:06.668Z,61.21
2022-12-11T19:34:33.244Z,60.52
2022-12-11T19:36:59.874Z,60.42
2022-12-11T19:39:26.318Z,61.60
2022-12-11T19:41:52.737Z,62.50
2022-12-11T19:44:19.156Z,61.14
2022-12-11T19:46:45.801Z,61.54
2022-12-11T19:49:12.614Z,61.12
2022-12-11T19:51:40.278Z,61.44
2022-12-11T19:54:08.383Z,61.74
2022-12-11T19:56:35.580Z,61.30
2022-12-11T19:59:03.414Z,60.23
2022-12-11T20:01:31.140Z,60.87
2022-12-11T20:03:59.472Z,61.08
2022-12-11T20:06:30.718Z,61.10
2022-12-11T20:08:57.339Z,61.32
2022-12-11T20:11:24.397Z,60.86
2022-12-11T20:13:51.091Z,60.25
2022-12-11T20:16:20.010Z,60.30
2022-12-11T20:18:55.771Z,60.59
2022-12-11T20:21:22.323Z,60.06
2022-12-11T20:23:49.189Z,60.11
2022-12-11T20:26:17.106Z,59.90
2022-12-11T20:28:44.874Z,60.01
2022-12-11T20:31:19.552Z,60.24
2022-12-11T20:33:46.801Z,59.78
2022-12-11T20:36:14.355Z,60.21
2022-12-11T20:38:41.685Z,60.34
2022-12-11T20:41:09.527Z,59.65
2022-12-11T20:43:37.091Z,59.87
2022-12-11T20:46:07.391Z,60.52
2022-12-11T20:48:34.195Z,61.00
2022-12-11T20:51:01.667Z,61.84
2022-12-11T20:53:31.052Z,62.75
2022-12-11T20:55:57.752Z,62.75
2022-12-11T20:58:24.192Z,62.85
2022-12-11T21:00:51.040Z,61.87
2022-12-11T21:03:17.651Z,62.24
2022-12-11T21:05:45.301Z,62.62
2022-12-11T21:08:12.300Z,60.95
2022-12-11T21:10:41.618Z,60.70
2022-12-11T21:13:08.190Z,61.24
2022-12-11T21:15:39.050Z,60.59
2022-12-11T21:18:05.826Z,60.47
2022-12-11T21:20:32.392Z,59.91
2022-12-11T21:22:58.946Z,60.98
2022-12-11T21:25:25.931Z,60.25
2022-12-11T21:27:52.422Z,60.75
2022-12-11T21:30:19.006Z,60.62
2022-12-11T21:32:45.547Z,60.00
2022-12-11T21:35:12.407Z,59.81
2022-12-11T21:37:41.701Z,59.40
2022-12-11T21:40:09.121Z,59.25
2022-12-11T21:42:35.562Z,59.53
2022-12-11T21:47:50.146Z,59.60
2022-12-11T21:50:17.103Z,59.93
2022-12-11T21:52:44.022Z,60.22
2022-12-11T21:55:11.417Z,59.51
2022-12-11T21:57:38.004Z,60.20
2022-12-11T22:00:05.314Z,59.71
2022-12-11T22:02:41.081Z,59.89
2022-12-11T22:05:08.066Z,59.43
2022-12-11T22:07:34.576Z,59.22
2022-12-11T22:10:01.079Z,59.85
2022-12-11T22:12:28.131Z,59.61
2022-12-11T22:14:54.797Z,59.75
2022-12-11T22:17:21.581Z,59.85
2022-12-11T22:19:48.184Z,59.63
2022-12-11T22:22:14.647Z,59.74
2022-12-11T22:24:41.661Z,59.05
2022-12-11T22:27:08.197Z,59.57
2022-12-11T22:29:35.561Z,59.48
2022-12-11T22:32:02.087Z,59.42
2022-12-11T22:34:28.554Z,58.56
2022-12-11T22:36:55.101Z,59.73
2022-12-11T22:39:21.620Z,60.49
2022-12-11T22:41:48.107Z,60.94
2022-12-11T22:44:16.021Z,61.54
2022-12-11T22:46:48.199Z,61.59
2022-12-11T22:49:16.375Z,59.63
2022-12-11T22:51:42.826Z,60.03
2022-12-11T22:54:09.251Z,59.53
2022-12-11T22:56:35.764Z,59.19
2022-12-11T22:59:02.434Z,58.59
2022-12-11T23:01:29.101Z,59.42
2022-12-11T23:03:55.604Z,59.86
2022-12-11T23:06:24.714Z,59.12
2022-12-11T23:08:52.023Z,59.28
2022-12-11T23:11:18.665Z,59.67
2022-12-11T23:13:45.135Z,59.62
2022-12-11T23:16:12.234Z,59.46
2022-12-11T23:18:39.407Z,58.62
2022-12-11T23:21:07.117Z,60.04
2022-12-11T23:23:33.585Z,59.85
2022-12-11T23:26:00.076Z,59.07
2022-12-11T23:28:26.473Z,59.17
2022-12-11T23:30:53.175Z,60.09
2022-12-11T23:33:19.651Z,59.25
2022-12-11T23:35:46.134Z,58.47
2022-12-11T23:38:12.633Z,59.00
2022-12-11T23:40:39.399Z,58.99
2022-12-11T23:43:05.854Z,58.67
2022-12-11T23:45:32.381Z,58.65
2022-12-11T23:47:58.953Z,57.97
2022-12-11T23:50:26.045Z,58.87
2022-12-11T23:52:52.596Z,59.22
2022-12-11T23:55:19.350Z,58.45
2022-12-11T23:57:46.089Z,58.41
